Аэропорт: Нариманово. Астрахань

ICAO: URWA

METAR:
2019/05/25 20:00
URWA 252000Z 10004MPS CAVOK 18/12 Q1012 R09/010070 NOSIG RMK QFE761/1014
METAR:
2019/05/18 15:12
TAF TAF URWA 181400Z 1815/1903 11003G08MPS 9999 SCT040 
      TEMPO 1821/1903 07003MPS 3100 BR